sensor_id;sensor_type;location;lat;lon;timestamp;noise_LAeq;noise_LA_min;noise_LA_max;noise_LA01;noise_LA95
69617;Laerm;58075;52.218;4.640;2022-08-24T00:00:06;34.08;31.21;43.00;;
69617;Laerm;58075;52.218;4.640;2022-08-24T00:00:18;33.96;31.11;37.51;;
69617;Laerm;58075;52.218;4.640;2022-08-24T00:00:29;34.41;31.22;38.89;;
69617;Laerm;58075;52.218;4.640;2022-08-24T00:00:40;32.47;30.27;34.70;;
69617;Laerm;58075;52.218;4.640;2022-08-24T00:00:50;31.80;29.81;33.77;;
69617;Laerm;58075;52.218;4.640;2022-08-24T00:01:00;31.06;29.83;32.50;;
69617;Laerm;58075;52.218;4.640;2022-08-24T00:01:12;31.67;29.22;33.89;;
69617;Laerm;58075;52.218;4.640;2022-08-24T00:01:23;32.27;30.56;34.12;;
69617;Laerm;58075;52.218;4.640;2022-08-24T00:01:33;33.36;30.34;40.68;;
69617;Laerm;58075;52.218;4.640;2022-08-24T00:01:44;32.12;30.08;37.22;;
69617;Laerm;58075;52.218;4.640;2022-08-24T00:01:54;32.23;30.44;34.10;;
69617;Laerm;58075;52.218;4.640;2022-08-24T00:02:04;32.57;30.49;36.62;;
69617;Laerm;58075;52.218;4.640;2022-08-24T00:02:14;32.80;30.82;35.15;;
69617;Laerm;58075;52.218;4.640;2022-08-24T00:02:26;35.43;32.21;40.34;;
69617;Laerm;58075;52.218;4.640;2022-08-24T00:02:37;35.49;31.90;39.68;;
69617;Laerm;58075;52.218;4.640;2022-08-24T00:02:47;37.48;34.72;41.71;;
69617;Laerm;58075;52.218;4.640;2022-08-24T00:02:59;37.53;33.79;43.68;;
69617;Laerm;58075;52.218;4.640;2022-08-24T00:03:09;36.84;33.89;42.23;;
69617;Laerm;58075;52.218;4.640;2022-08-24T00:03:20;40.15;34.35;45.15;;
69617;Laerm;58075;52.218;4.640;2022-08-24T00:03:32;37.21;34.04;40.65;;
69617;Laerm;58075;52.218;4.640;2022-08-24T00:03:43;38.13;33.20;42.98;;
69617;Laerm;58075;52.218;4.640;2022-08-24T00:03:54;36.91;33.20;43.06;;
69617;Laerm;58075;52.218;4.640;2022-08-24T00:04:06;35.18;32.73;39.39;;
69617;Laerm;58075;52.218;4.640;2022-08-24T00:04:16;36.81;33.27;40.52;;
69617;Laerm;58075;52.218;4.640;2022-08-24T00:04:27;39.22;35.81;43.44;;
69617;Laerm;58075;52.218;4.640;2022-08-24T00:04:37;44.33;35.99;54.78;;
69617;Laerm;58075;52.218;4.640;2022-08-24T00:04:48;42.73;34.08;49.98;;
69617;Laerm;58075;52.218;4.640;2022-08-24T00:04:59;38.25;34.38;43.37;;
69617;Laerm;58075;52.218;4.640;2022-08-24T00:05:10;34.41;31.85;37.25;;
69617;Laerm;58075;52.218;4.640;2022-08-24T00:05:20;36.39;31.72;42.50;;
69617;Laerm;58075;52.218;4.640;2022-08-24T00:05:31;38.77;33.38;43.85;;
69617;Laerm;58075;52.218;4.640;2022-08-24T00:05:41;37.84;34.99;42.04;;
69617;Laerm;58075;52.218;4.640;2022-08-24T00:05:52;37.41;34.34;40.08;;
69617;Laerm;58075;52.218;4.640;2022-08-24T00:06:03;37.79;34.45;41.95;;
69617;Laerm;58075;52.218;4.640;2022-08-24T00:06:18;41.10;36.00;47.06;;
69617;Laerm;58075;52.218;4.640;2022-08-24T00:06:29;39.00;35.66;44.06;;
69617;Laerm;58075;52.218;4.640;2022-08-24T00:06:39;40.04;35.45;44.34;;
69617;Laerm;58075;52.218;4.640;2022-08-24T00:06:49;37.15;33.03;40.35;;
69617;Laerm;58075;52.218;4.640;2022-08-24T00:07:00;33.48;31.55;35.51;;
69617;Laerm;58075;52.218;4.640;2022-08-24T00:07:11;34.36;31.83;37.62;;
69617;Laerm;58075;52.218;4.640;2022-08-24T00:07:21;34.04;32.23;37.10;;
69617;Laerm;58075;52.218;4.640;2022-08-24T00:07:32;33.34;31.33;38.02;;
69617;Laerm;58075;52.218;4.640;2022-08-24T00:07:43;32.44;30.25;35.51;;
69617;Laerm;58075;52.218;4.640;2022-08-24T00:07:53;32.30;30.59;34.77;;
69617;Laerm;58075;52.218;4.640;2022-08-24T00:08:04;32.46;30.36;34.29;;
69617;Laerm;58075;52.218;4.640;2022-08-24T00:08:14;32.73;30.81;35.01;;
69617;Laerm;58075;52.218;4.640;2022-08-24T00:08:25;33.59;31.35;37.75;;
69617;Laerm;58075;52.218;4.640;2022-08-24T00:08:36;33.88;31.29;37.70;;
69617;Laerm;58075;52.218;4.640;2022-08-24T00:08:47;33.27;30.96;36.03;;
69617;Laerm;58075;52.218;4.640;2022-08-24T00:08:58;33.82;31.80;38.54;;
69617;Laerm;58075;52.218;4.640;2022-08-24T00:09:09;32.93;31.00;34.69;;
69617;Laerm;58075;52.218;4.640;2022-08-24T00:09:19;33.81;31.23;36.01;;
69617;Laerm;58075;52.218;4.640;2022-08-24T00:09:30;33.56;31.25;35.07;;
69617;Laerm;58075;52.218;4.640;2022-08-24T00:09:41;33.11;31.02;35.86;;
69617;Laerm;58075;52.218;4.640;2022-08-24T00:09:52;34.06;31.62;36.35;;
69617;Laerm;58075;52.218;4.640;2022-08-24T00:10:03;35.26;33.44;37.31;;
69617;Laerm;58075;52.218;4.640;2022-08-24T00:10:15;34.09;31.28;36.55;;
69617;Laerm;58075;52.218;4.640;2022-08-24T00:10:25;34.48;31.43;43.47;;
69617;Laerm;58075;52.218;4.640;2022-08-24T00:10:36;36.36;33.06;45.73;;
69617;Laerm;58075;52.218;4.640;2022-08-24T00:10:46;34.84;31.92;44.36;;
69617;Laerm;58075;52.218;4.640;2022-08-24T00:10:56;35.16;32.09;42.65;;
69617;Laerm;58075;52.218;4.640;2022-08-24T00:11:08;33.63;31.40;44.31;;
69617;Laerm;58075;52.218;4.640;2022-08-24T00:11:19;34.03;31.39;39.28;;
69617;Laerm;58075;52.218;4.640;2022-08-24T00:11:29;34.14;32.31;36.63;;
69617;Laerm;58075;52.218;4.640;2022-08-24T00:11:40;34.61;32.41;36.76;;
69617;Laerm;58075;52.218;4.640;2022-08-24T00:11:50;35.42;32.89;38.32;;
69617;Laerm;58075;52.218;4.640;2022-08-24T00:12:01;35.31;32.77;39.58;;
69617;Laerm;58075;52.218;4.640;2022-08-24T00:12:12;35.19;32.89;39.28;;
69617;Laerm;58075;52.218;4.640;2022-08-24T00:12:22;35.55;32.25;38.53;;
69617;Laerm;58075;52.218;4.640;2022-08-24T00:12:33;36.13;33.85;38.92;;
69617;Laerm;58075;52.218;4.640;2022-08-24T00:12:43;35.46;33.27;37.61;;
69617;Laerm;58075;52.218;4.640;2022-08-24T00:12:53;35.61;32.65;39.22;;
69617;Laerm;58075;52.218;4.640;2022-08-24T00:13:04;35.43;33.24;38.33;;
69617;Laerm;58075;52.218;4.640;2022-08-24T00:13:15;35.40;32.44;38.53;;
69617;Laerm;58075;52.218;4.640;2022-08-24T00:13:26;34.69;31.18;36.60;;
69617;Laerm;58075;52.218;4.640;2022-08-24T00:13:36;35.72;32.99;41.17;;
69617;Laerm;58075;52.218;4.640;2022-08-24T00:13:48;35.50;33.00;38.79;;
69617;Laerm;58075;52.218;4.640;2022-08-24T00:13:58;35.44;32.94;38.44;;
69617;Laerm;58075;52.218;4.640;2022-08-24T00:14:08;37.64;34.13;42.02;;
69617;Laerm;58075;52.218;4.640;2022-08-24T00:14:20;40.69;36.09;44.23;;
69617;Laerm;58075;52.218;4.640;2022-08-24T00:14:30;41.82;36.43;46.84;;
69617;Laerm;58075;52.218;4.640;2022-08-24T00:14:41;37.63;34.61;41.63;;
69617;Laerm;58075;52.218;4.640;2022-08-24T00:14:51;34.68;32.56;39.32;;
69617;Laerm;58075;52.218;4.640;2022-08-24T00:15:03;33.68;31.62;35.88;;
69617;Laerm;58075;52.218;4.640;2022-08-24T00:15:14;34.05;32.17;36.93;;
69617;Laerm;58075;52.218;4.640;2022-08-24T00:15:25;33.49;31.40;36.00;;
69617;Laerm;58075;52.218;4.640;2022-08-24T00:15:36;33.76;31.37;38.96;;
69617;Laerm;58075;52.218;4.640;2022-08-24T00:15:46;34.11;32.31;36.51;;
69617;Laerm;58075;52.218;4.640;2022-08-24T00:15:56;34.84;32.85;38.01;;
69617;Laerm;58075;52.218;4.640;2022-08-24T00:16:07;36.28;33.18;39.76;;
69617;Laerm;58075;52.218;4.640;2022-08-24T00:16:18;39.26;35.37;42.45;;
69617;Laerm;58075;52.218;4.640;2022-08-24T00:16:28;39.60;33.70;44.23;;
69617;Laerm;58075;52.218;4.640;2022-08-24T00:16:39;41.73;35.47;44.34;;
69617;Laerm;58075;52.218;4.640;2022-08-24T00:16:49;35.61;31.62;38.99;;
69617;Laerm;58075;52.218;4.640;2022-08-24T00:17:00;34.80;32.15;38.06;;
69617;Laerm;58075;52.218;4.640;2022-08-24T00:17:10;34.38;31.09;37.84;;
69617;Laerm;58075;52.218;4.640;2022-08-24T00:17:21;33.85;31.12;40.17;;
69617;Laerm;58075;52.218;4.640;2022-08-24T00:17:31;34.59;32.18;39.43;;
69617;Laerm;58075;52.218;4.640;2022-08-24T00:17:42;33.69;30.91;36.33;;
69617;Laerm;58075;52.218;4.640;2022-08-24T00:17:54;34.16;32.00;36.83;;
69617;Laerm;58075;52.218;4.640;2022-08-24T00:18:04;33.23;31.28;34.89;;
69617;Laerm;58075;52.218;4.640;2022-08-24T00:18:15;34.25;32.05;37.13;;
69617;Laerm;58075;52.218;4.640;2022-08-24T00:18:25;33.86;31.62;36.71;;
69617;Laerm;58075;52.218;4.640;2022-08-24T00:18:36;33.40;31.14;35.49;;
69617;Laerm;58075;52.218;4.640;2022-08-24T00:18:46;33.62;31.34;36.65;;
69617;Laerm;58075;52.218;4.640;2022-08-24T00:18:57;34.07;31.60;39.71;;
69617;Laerm;58075;52.218;4.640;2022-08-24T00:19:07;33.59;31.12;35.47;;
69617;Laerm;58075;52.218;4.640;2022-08-24T00:19:17;34.49;32.19;37.00;;
69617;Laerm;58075;52.218;4.640;2022-08-24T00:19:28;34.64;32.43;37.16;;
69617;Laerm;58075;52.218;4.640;2022-08-24T00:19:38;34.87;32.59;36.99;;
69617;Laerm;58075;52.218;4.640;2022-08-24T00:19:49;34.56;31.84;37.85;;
69617;Laerm;58075;52.218;4.640;2022-08-24T00:19:59;34.40;32.44;39.97;;
69617;Laerm;58075;52.218;4.640;2022-08-24T00:20:09;34.69;32.63;38.29;;
69617;Laerm;58075;52.218;4.640;2022-08-24T00:20:20;34.43;32.17;37.76;;
69617;Laerm;58075;52.218;4.640;2022-08-24T00:20:31;34.49;31.78;37.30;;
69617;Laerm;58075;52.218;4.640;2022-08-24T00:20:41;34.40;32.02;39.00;;
69617;Laerm;58075;52.218;4.640;2022-08-24T00:20:51;34.90;33.05;37.73;;
69617;Laerm;58075;52.218;4.640;2022-08-24T00:21:02;33.94;32.06;35.84;;
69617;Laerm;58075;52.218;4.640;2022-08-24T00:21:13;33.89;31.85;36.66;;
69617;Laerm;58075;52.218;4.640;2022-08-24T00:21:24;32.76;30.75;34.77;;
69617;Laerm;58075;52.218;4.640;2022-08-24T00:21:34;32.46;30.51;34.21;;
69617;Laerm;58075;52.218;4.640;2022-08-24T00:21:45;32.30;30.34;34.00;;
69617;Laerm;58075;52.218;4.640;2022-08-24T00:21:56;33.01;31.01;34.90;;
69617;Laerm;58075;52.218;4.640;2022-08-24T00:22:06;32.90;31.16;34.24;;
69617;Laerm;58075;52.218;4.640;2022-08-24T00:22:16;33.82;31.79;36.17;;
69617;Laerm;58075;52.218;4.640;2022-08-24T00:22:27;34.42;32.47;36.92;;
69617;Laerm;58075;52.218;4.640;2022-08-24T00:22:38;34.34;32.81;36.10;;
69617;Laerm;58075;52.218;4.640;2022-08-24T00:22:50;36.35;32.88;40.38;;
69617;Laerm;58075;52.218;4.640;2022-08-24T00:23:00;40.42;36.38;44.54;;
69617;Laerm;58075;52.218;4.640;2022-08-24T00:23:11;38.04;32.96;40.99;;
69617;Laerm;58075;52.218;4.640;2022-08-24T00:23:21;37.12;33.67;47.44;;
69617;Laerm;58075;52.218;4.640;2022-08-24T00:23:32;37.03;34.02;46.35;;
69617;Laerm;58075;52.218;4.640;2022-08-24T00:23:42;35.50;32.40;44.29;;
69617;Laerm;58075;52.218;4.640;2022-08-24T00:23:52;35.07;32.66;37.18;;
69617;Laerm;58075;52.218;4.640;2022-08-24T00:24:03;33.79;31.46;35.77;;
69617;Laerm;58075;52.218;4.640;2022-08-24T00:24:14;33.66;31.72;35.87;;
69617;Laerm;58075;52.218;4.640;2022-08-24T00:24:25;34.53;32.04;37.62;;
69617;Laerm;58075;52.218;4.640;2022-08-24T00:24:35;35.70;33.84;38.18;;
69617;Laerm;58075;52.218;4.640;2022-08-24T00:24:45;35.04;33.28;37.44;;
69617;Laerm;58075;52.218;4.640;2022-08-24T00:24:56;36.57;32.83;41.57;;
69617;Laerm;58075;52.218;4.640;2022-08-24T00:25:07;40.44;36.11;47.07;;
69617;Laerm;58075;52.218;4.640;2022-08-24T00:25:17;43.41;36.13;50.92;;
69617;Laerm;58075;52.218;4.640;2022-08-24T00:25:29;41.82;35.42;49.09;;
69617;Laerm;58075;52.218;4.640;2022-08-24T00:25:40;37.87;33.76;41.90;;
69617;Laerm;58075;52.218;4.640;2022-08-24T00:25:50;35.26;32.99;37.53;;
69617;Laerm;58075;52.218;4.640;2022-08-24T00:26:01;34.82;31.70;37.23;;
69617;Laerm;58075;52.218;4.640;2022-08-24T00:26:11;36.38;33.64;39.33;;
69617;Laerm;58075;52.218;4.640;2022-08-24T00:26:22;36.91;33.47;39.55;;
69617;Laerm;58075;52.218;4.640;2022-08-24T00:26:32;34.67;32.42;36.97;;
69617;Laerm;58075;52.218;4.640;2022-08-24T00:26:44;36.55;33.78;38.38;;
69617;Laerm;58075;52.218;4.640;2022-08-24T00:26:55;34.55;31.51;37.88;;
69617;Laerm;58075;52.218;4.640;2022-08-24T00:27:06;33.43;31.80;35.75;;
69617;Laerm;58075;52.218;4.640;2022-08-24T00:27:16;33.75;32.05;35.37;;
69617;Laerm;58075;52.218;4.640;2022-08-24T00:27:27;33.54;31.82;35.50;;
69617;Laerm;58075;52.218;4.640;2022-08-24T00:27:38;35.10;32.47;37.77;;
69617;Laerm;58075;52.218;4.640;2022-08-24T00:27:49;35.05;32.05;39.69;;
69617;Laerm;58075;52.218;4.640;2022-08-24T00:27:59;36.40;32.30;41.15;;
69617;Laerm;58075;52.218;4.640;2022-08-24T00:28:10;36.65;34.05;40.31;;
69617;Laerm;58075;52.218;4.640;2022-08-24T00:28:21;40.87;35.29;46.09;;
69617;Laerm;58075;52.218;4.640;2022-08-24T00:28:31;38.75;34.32;43.73;;
69617;Laerm;58075;52.218;4.640;2022-08-24T00:28:42;36.53;33.25;42.68;;
69617;Laerm;58075;52.218;4.640;2022-08-24T00:28:52;35.34;33.29;37.91;;
69617;Laerm;58075;52.218;4.640;2022-08-24T00:29:03;35.06;32.74;42.31;;
69617;Laerm;58075;52.218;4.640;2022-08-24T00:29:14;33.61;31.21;36.64;;
69617;Laerm;58075;52.218;4.640;2022-08-24T00:29:25;33.42;31.70;35.09;;
69617;Laerm;58075;52.218;4.640;2022-08-24T00:29:35;33.17;31.28;34.74;;
69617;Laerm;58075;52.218;4.640;2022-08-24T00:29:45;34.00;30.57;38.57;;
69617;Laerm;58075;52.218;4.640;2022-08-24T00:29:56;39.09;34.07;43.11;;
69617;Laerm;58075;52.218;4.640;2022-08-24T00:30:10;35.52;32.85;38.81;;
69617;Laerm;58075;52.218;4.640;2022-08-24T00:30:21;36.21;32.72;39.32;;
69617;Laerm;58075;52.218;4.640;2022-08-24T00:30:31;35.28;32.01;39.76;;
69617;Laerm;58075;52.218;4.640;2022-08-24T00:30:42;33.91;31.65;35.79;;
69617;Laerm;58075;52.218;4.640;2022-08-24T00:30:52;34.17;31.99;36.22;;
69617;Laerm;58075;52.218;4.640;2022-08-24T00:31:03;33.55;31.55;35.90;;
69617;Laerm;58075;52.218;4.640;2022-08-24T00:31:14;33.76;31.48;35.81;;
69617;Laerm;58075;52.218;4.640;2022-08-24T00:31:24;34.02;32.07;36.39;;
69617;Laerm;58075;52.218;4.640;2022-08-24T00:31:35;34.27;31.97;37.16;;
69617;Laerm;58075;52.218;4.640;2022-08-24T00:31:45;33.39;31.27;34.99;;
69617;Laerm;58075;52.218;4.640;2022-08-24T00:31:56;33.89;31.97;36.33;;
69617;Laerm;58075;52.218;4.640;2022-08-24T00:32:06;34.22;32.38;36.11;;
69617;Laerm;58075;52.218;4.640;2022-08-24T00:32:17;33.00;31.21;35.11;;
69617;Laerm;58075;52.218;4.640;2022-08-24T00:32:27;33.13;31.39;35.38;;
69617;Laerm;58075;52.218;4.640;2022-08-24T00:32:39;34.93;32.52;38.06;;
69617;Laerm;58075;52.218;4.640;2022-08-24T00:32:49;34.05;32.19;36.32;;
69617;Laerm;58075;52.218;4.640;2022-08-24T00:32:59;33.04;30.82;35.41;;
69617;Laerm;58075;52.218;4.640;2022-08-24T00:33:10;33.98;31.85;36.88;;
69617;Laerm;58075;52.218;4.640;2022-08-24T00:33:21;34.39;31.87;37.60;;
69617;Laerm;58075;52.218;4.640;2022-08-24T00:33:31;39.14;33.51;47.32;;
69617;Laerm;58075;52.218;4.640;2022-08-24T00:33:42;41.58;33.18;47.44;;
69617;Laerm;58075;52.218;4.640;2022-08-24T00:33:52;34.78;32.39;38.87;;
69617;Laerm;58075;52.218;4.640;2022-08-24T00:34:03;33.76;31.23;36.58;;
69617;Laerm;58075;52.218;4.640;2022-08-24T00:34:14;32.85;31.11;35.72;;
69617;Laerm;58075;52.218;4.640;2022-08-24T00:34:26;33.32;31.03;36.15;;
69617;Laerm;58075;52.218;4.640;2022-08-24T00:34:37;32.95;31.04;34.93;;
69617;Laerm;58075;52.218;4.640;2022-08-24T00:34:48;33.09;31.24;34.91;;
69617;Laerm;58075;52.218;4.640;2022-08-24T00:34:58;34.32;31.55;38.43;;
69617;Laerm;58075;52.218;4.640;2022-08-24T00:35:09;39.28;34.25;42.60;;
69617;Laerm;58075;52.218;4.640;2022-08-24T00:35:20;48.59;36.48;53.63;;
69617;Laerm;58075;52.218;4.640;2022-08-24T00:35:30;41.79;36.41;47.85;;
69617;Laerm;58075;52.218;4.640;2022-08-24T00:35:41;42.07;36.62;45.48;;
69617;Laerm;58075;52.218;4.640;2022-08-24T00:35:51;38.17;34.16;41.75;;
69617;Laerm;58075;52.218;4.640;2022-08-24T00:36:02;39.74;34.33;44.10;;
69617;Laerm;58075;52.218;4.640;2022-08-24T00:36:13;35.28;33.22;37.58;;
69617;Laerm;58075;52.218;4.640;2022-08-24T00:36:23;36.12;33.91;38.21;;
69617;Laerm;58075;52.218;4.640;2022-08-24T00:36:34;35.26;32.06;47.31;;
69617;Laerm;58075;52.218;4.640;2022-08-24T00:36:44;41.67;36.20;45.18;;
69617;Laerm;58075;52.218;4.640;2022-08-24T00:36:55;44.02;36.63;50.78;;
69617;Laerm;58075;52.218;4.640;2022-08-24T00:37:05;35.38;33.27;38.00;;
69617;Laerm;58075;52.218;4.640;2022-08-24T00:37:16;33.67;31.57;35.72;;
69617;Laerm;58075;52.218;4.640;2022-08-24T00:37:26;34.00;31.39;47.19;;
69617;Laerm;58075;52.218;4.640;2022-08-24T00:37:37;33.16;30.61;35.03;;
69617;Laerm;58075;52.218;4.640;2022-08-24T00:37:48;33.22;31.21;34.77;;
69617;Laerm;58075;52.218;4.640;2022-08-24T00:38:00;33.68;31.60;36.45;;
69617;Laerm;58075;52.218;4.640;2022-08-24T00:38:10;33.67;31.45;36.27;;
69617;Laerm;58075;52.218;4.640;2022-08-24T00:38:20;33.68;31.76;38.64;;
69617;Laerm;58075;52.218;4.640;2022-08-24T00:38:31;34.10;31.05;51.63;;
69617;Laerm;58075;52.218;4.640;2022-08-24T00:38:41;32.52;30.70;34.69;;
69617;Laerm;58075;52.218;4.640;2022-08-24T00:38:52;33.02;31.07;35.35;;
69617;Laerm;58075;52.218;4.640;2022-08-24T00:39:03;32.42;30.92;34.23;;
69617;Laerm;58075;52.218;4.640;2022-08-24T00:39:13;33.28;31.23;35.25;;
69617;Laerm;58075;52.218;4.640;2022-08-24T00:39:24;34.87;31.40;36.90;;
69617;Laerm;58075;52.218;4.640;2022-08-24T00:39:34;34.18;31.24;37.21;;
69617;Laerm;58075;52.218;4.640;2022-08-24T00:39:45;34.22;32.15;36.99;;
69617;Laerm;58075;52.218;4.640;2022-08-24T00:39:55;32.95;31.29;34.60;;
69617;Laerm;58075;52.218;4.640;2022-08-24T00:40:09;33.18;31.05;36.42;;
69617;Laerm;58075;52.218;4.640;2022-08-24T00:40:26;34.30;31.75;37.93;;
69617;Laerm;58075;52.218;4.640;2022-08-24T00:40:38;35.35;32.82;38.87;;
69617;Laerm;58075;52.218;4.640;2022-08-24T00:40:48;34.71;32.48;40.98;;
69617;Laerm;58075;52.218;4.640;2022-08-24T00:40:59;34.00;31.79;35.82;;
69617;Laerm;58075;52.218;4.640;2022-08-24T00:41:10;33.10;31.02;35.38;;
69617;Laerm;58075;52.218;4.640;2022-08-24T00:41:22;33.95;31.82;36.30;;
69617;Laerm;58075;52.218;4.640;2022-08-24T00:41:33;33.71;31.73;35.49;;
69617;Laerm;58075;52.218;4.640;2022-08-24T00:41:44;33.62;31.76;35.78;;
69617;Laerm;58075;52.218;4.640;2022-08-24T00:41:55;32.60;30.02;34.95;;
69617;Laerm;58075;52.218;4.640;2022-08-24T00:42:06;33.10;31.35;35.17;;
69617;Laerm;58075;52.218;4.640;2022-08-24T00:42:16;33.52;31.65;36.00;;
69617;Laerm;58075;52.218;4.640;2022-08-24T00:42:26;33.49;31.42;35.93;;
69617;Laerm;58075;52.218;4.640;2022-08-24T00:42:37;34.02;32.22;36.47;;
69617;Laerm;58075;52.218;4.640;2022-08-24T00:42:48;34.03;31.98;36.47;;
69617;Laerm;58075;52.218;4.640;2022-08-24T00:42:59;33.72;31.13;35.57;;
69617;Laerm;58075;52.218;4.640;2022-08-24T00:43:15;34.24;31.74;37.15;;
69617;Laerm;58075;52.218;4.640;2022-08-24T00:43:26;33.39;30.76;35.59;;
69617;Laerm;58075;52.218;4.640;2022-08-24T00:43:37;33.07;31.26;34.96;;
69617;Laerm;58075;52.218;4.640;2022-08-24T00:43:51;32.77;31.37;34.83;;
69617;Laerm;58075;52.218;4.640;2022-08-24T00:44:04;32.99;30.86;38.60;;
69617;Laerm;58075;52.218;4.640;2022-08-24T00:44:15;33.78;31.77;38.96;;
69617;Laerm;58075;52.218;4.640;2022-08-24T00:44:26;36.14;33.38;39.94;;
69617;Laerm;58075;52.218;4.640;2022-08-24T00:44:36;35.09;33.31;37.02;;
69617;Laerm;58075;52.218;4.640;2022-08-24T00:44:46;36.03;33.95;38.10;;
69617;Laerm;58075;52.218;4.640;2022-08-24T00:44:57;36.86;34.21;40.91;;
69617;Laerm;58075;52.218;4.640;2022-08-24T00:45:10;36.05;32.57;40.36;;
69617;Laerm;58075;52.218;4.640;2022-08-24T00:45:21;34.75;32.42;36.96;;
69617;Laerm;58075;52.218;4.640;2022-08-24T00:45:34;34.43;31.82;39.78;;
69617;Laerm;58075;52.218;4.640;2022-08-24T00:45:47;34.67;32.54;37.10;;
69617;Laerm;58075;52.218;4.640;2022-08-24T00:46:21;34.86;32.70;36.91;;
69617;Laerm;58075;52.218;4.640;2022-08-24T00:46:37;34.42;32.35;37.58;;
69617;Laerm;58075;52.218;4.640;2022-08-24T00:47:02;34.67;31.82;38.00;;
69617;Laerm;58075;52.218;4.640;2022-08-24T00:47:23;33.47;31.04;35.56;;
69617;Laerm;58075;52.218;4.640;2022-08-24T00:47:54;36.20;32.45;39.27;;
69617;Laerm;58075;52.218;4.640;2022-08-24T00:48:11;35.96;32.58;39.05;;
69617;Laerm;58075;52.218;4.640;2022-08-24T00:48:24;35.12;32.54;38.17;;
69617;Laerm;58075;52.218;4.640;2022-08-24T00:48:39;34.98;32.79;38.53;;
69617;Laerm;58075;52.218;4.640;2022-08-24T00:48:50;34.01;31.33;39.76;;
69617;Laerm;58075;52.218;4.640;2022-08-24T00:49:05;33.65;31.67;36.15;;
69617;Laerm;58075;52.218;4.640;2022-08-24T00:49:19;34.83;32.79;38.78;;
69617;Laerm;58075;52.218;4.640;2022-08-24T00:50:09;33.95;31.85;36.44;;
69617;Laerm;58075;52.218;4.640;2022-08-24T00:50:23;33.60;31.26;35.62;;
69617;Laerm;58075;52.218;4.640;2022-08-24T00:50:42;36.32;33.00;41.08;;
69617;Laerm;58075;52.218;4.640;2022-08-24T00:50:57;34.50;31.98;40.38;;
69617;Laerm;58075;52.218;4.640;2022-08-24T00:51:19;33.29;30.48;36.91;;
69617;Laerm;58075;52.218;4.640;2022-08-24T00:51:42;36.22;31.19;47.49;;
69617;Laerm;58075;52.218;4.640;2022-08-24T00:52:10;33.95;31.27;48.11;;
69617;Laerm;58075;52.218;4.640;2022-08-24T00:52:32;33.50;30.27;42.05;;
69617;Laerm;58075;52.218;4.640;2022-08-24T00:52:48;34.33;30.38;48.11;;
69617;Laerm;58075;52.218;4.640;2022-08-24T00:53:00;39.06;31.93;45.11;;
69617;Laerm;58075;52.218;4.640;2022-08-24T00:53:16;48.71;39.28;57.21;;
69617;Laerm;58075;52.218;4.640;2022-08-24T00:53:36;55.93;48.74;63.44;;
69617;Laerm;58075;52.218;4.640;2022-08-24T00:53:50;49.33;41.28;56.37;;
69617;Laerm;58075;52.218;4.640;2022-08-24T00:54:10;39.51;35.59;45.31;;
69617;Laerm;58075;52.218;4.640;2022-08-24T00:54:22;36.59;31.66;41.14;;
69617;Laerm;58075;52.218;4.640;2022-08-24T00:54:37;34.40;31.73;36.58;;
69617;Laerm;58075;52.218;4.640;2022-08-24T00:54:53;34.89;31.68;37.27;;
69617;Laerm;58075;52.218;4.640;2022-08-24T00:55:06;33.75;31.39;36.95;;
69617;Laerm;58075;52.218;4.640;2022-08-24T00:55:38;34.38;31.94;40.97;;
69617;Laerm;58075;52.218;4.640;2022-08-24T00:55:51;33.88;32.13;35.77;;
69617;Laerm;58075;52.218;4.640;2022-08-24T00:56:04;34.02;32.02;35.88;;
69617;Laerm;58075;52.218;4.640;2022-08-24T00:56:20;33.69;31.80;36.52;;
69617;Laerm;58075;52.218;4.640;2022-08-24T00:56:37;33.99;31.67;38.21;;
69617;Laerm;58075;52.218;4.640;2022-08-24T00:56:50;34.77;32.42;37.17;;
69617;Laerm;58075;52.218;4.640;2022-08-24T00:57:02;35.35;33.51;38.73;;
69617;Laerm;58075;52.218;4.640;2022-08-24T00:57:15;35.61;32.56;37.97;;
69617;Laerm;58075;52.218;4.640;2022-08-24T00:57:28;38.53;33.74;44.31;;
69617;Laerm;58075;52.218;4.640;2022-08-24T00:57:40;34.72;31.89;39.91;;
69617;Laerm;58075;52.218;4.640;2022-08-24T00:57:51;34.07;31.37;36.40;;
69617;Laerm;58075;52.218;4.640;2022-08-24T00:58:06;33.50;31.07;36.05;;
69617;Laerm;58075;52.218;4.640;2022-08-24T00:58:18;33.29;31.40;35.37;;
69617;Laerm;58075;52.218;4.640;2022-08-24T00:58:41;32.71;30.89;34.46;;
69617;Laerm;58075;52.218;4.640;2022-08-24T00:58:58;33.11;30.87;38.34;;
69617;Laerm;58075;52.218;4.640;2022-08-24T00:59:11;32.88;30.85;34.67;;
69617;Laerm;58075;52.218;4.640;2022-08-24T00:59:25;33.31;31.54;35.28;;
69617;Laerm;58075;52.218;4.640;2022-08-24T00:59:47;34.02;31.39;37.00;;
69617;Laerm;58075;52.218;4.640;2022-08-24T01:00:02;33.80;31.63;36.51;;
69617;Laerm;58075;52.218;4.640;2022-08-24T01:00:14;34.01;31.87;37.31;;
69617;Laerm;58075;52.218;4.640;2022-08-24T01:00:27;32.79;31.06;34.59;;
69617;Laerm;58075;52.218;4.640;2022-08-24T01:00:41;33.86;31.61;35.49;;
69617;Laerm;58075;52.218;4.640;2022-08-24T01:00:56;33.73;31.53;37.10;;
69617;Laerm;58075;52.218;4.640;2022-08-24T01:01:07;38.13;32.47;43.42;;
69617;Laerm;58075;52.218;4.640;2022-08-24T01:01:18;40.73;33.57;46.34;;
69617;Laerm;58075;52.218;4.640;2022-08-24T01:01:28;35.79;33.76;37.59;;
69617;Laerm;58075;52.218;4.640;2022-08-24T01:01:40;35.86;33.55;38.97;;
69617;Laerm;58075;52.218;4.640;2022-08-24T01:01:51;35.17;33.37;37.87;;
69617;Laerm;58075;52.218;4.640;2022-08-24T01:02:04;35.85;33.03;41.39;;
69617;Laerm;58075;52.218;4.640;2022-08-24T01:02:17;35.17;32.84;38.63;;
69617;Laerm;58075;52.218;4.640;2022-08-24T01:02:30;35.66;33.65;38.30;;
69617;Laerm;58075;52.218;4.640;2022-08-24T01:02:41;36.87;34.52;39.92;;
69617;Laerm;58075;52.218;4.640;2022-08-24T01:02:53;37.74;32.98;42.07;;
69617;Laerm;58075;52.218;4.640;2022-08-24T01:03:04;34.00;32.41;36.89;;
69617;Laerm;58075;52.218;4.640;2022-08-24T01:03:16;33.33;31.38;35.07;;
69617;Laerm;58075;52.218;4.640;2022-08-24T01:03:26;33.92;31.82;36.71;;
69617;Laerm;58075;52.218;4.640;2022-08-24T01:03:37;33.06;31.49;35.14;;
69617;Laerm;58075;52.218;4.640;2022-08-24T01:03:47;32.51;30.71;34.51;;
69617;Laerm;58075;52.218;4.640;2022-08-24T01:03:58;33.37;31.39;37.09;;
69617;Laerm;58075;52.218;4.640;2022-08-24T01:04:13;33.95;31.51;36.43;;
69617;Laerm;58075;52.218;4.640;2022-08-24T01:04:27;34.17;31.88;37.35;;
69617;Laerm;58075;52.218;4.640;2022-08-24T01:04:42;33.51;31.17;36.10;;
69617;Laerm;58075;52.218;4.640;2022-08-24T01:04:56;33.50;31.61;36.26;;
69617;Laerm;58075;52.218;4.640;2022-08-24T01:05:07;33.99;31.85;36.13;;
69617;Laerm;58075;52.218;4.640;2022-08-24T01:05:18;34.22;31.84;38.17;;
69617;Laerm;58075;52.218;4.640;2022-08-24T01:05:32;33.78;32.09;35.40;;
69617;Laerm;58075;52.218;4.640;2022-08-24T01:05:43;34.60;32.71;36.68;;
69617;Laerm;58075;52.218;4.640;2022-08-24T01:05:53;34.46;32.88;36.21;;
69617;Laerm;58075;52.218;4.640;2022-08-24T01:06:05;33.72;32.15;36.12;;
69617;Laerm;58075;52.218;4.640;2022-08-24T01:06:15;34.88;32.31;37.34;;
69617;Laerm;58075;52.218;4.640;2022-08-24T01:06:26;34.44;32.48;37.64;;
69617;Laerm;58075;52.218;4.640;2022-08-24T01:06:36;33.68;31.47;36.01;;
69617;Laerm;58075;52.218;4.640;2022-08-24T01:06:47;34.56;32.21;37.73;;